createdAt,value
2023-11-19T00:00:33.947Z,8.93
2023-11-19T00:03:23.140Z,8.17
2023-11-19T00:05:51.902Z,7.53
2023-11-19T00:08:22.822Z,8.97
2023-11-19T00:10:52.166Z,9.80
2023-11-19T00:13:21.545Z,9.10
2023-11-19T00:15:50.650Z,9.77
2023-11-19T00:18:19.520Z,9.57
2023-11-19T00:20:49.094Z,9.67
2023-11-19T00:23:18.114Z,8.50
2023-11-19T00:25:49.246Z,8.67
2023-11-19T00:28:18.337Z,9.07
2023-11-19T00:30:46.726Z,8.63
2023-11-19T00:33:16.671Z,8.07
2023-11-19T00:35:45.164Z,9.20
2023-11-19T00:38:14.436Z,9.13
2023-11-19T00:40:42.970Z,8.43
2023-11-19T00:43:13.293Z,9.20
2023-11-19T00:45:41.610Z,7.90
2023-11-19T00:48:10.192Z,10.33
2023-11-19T00:50:39.617Z,8.53
2023-11-19T00:53:09.275Z,9.83
2023-11-19T00:55:46.838Z,9.47
2023-11-19T00:58:18.671Z,10.33
2023-11-19T01:00:47.023Z,9.53
2023-11-19T01:03:16.572Z,9.57
2023-11-19T01:05:45.706Z,9.77
2023-11-19T01:08:14.183Z,9.87
2023-11-19T01:10:42.600Z,9.73
2023-11-19T01:13:11.428Z,9.60
2023-11-19T01:15:42.309Z,9.63
2023-11-19T01:18:11.618Z,9.60
2023-11-19T01:20:39.984Z,10.23
2023-11-19T01:23:09.031Z,11.40
2023-11-19T01:25:39.255Z,8.83
2023-11-19T01:28:07.802Z,10.23
2023-11-19T01:30:36.478Z,8.53
2023-11-19T01:33:08.738Z,8.67
2023-11-19T01:35:37.115Z,8.53
2023-11-19T01:38:05.874Z,9.97
2023-11-19T01:40:34.148Z,9.47
2023-11-19T01:43:02.741Z,9.63
2023-11-19T01:45:32.547Z,9.00
2023-11-19T01:48:04.839Z,9.20
2023-11-19T01:50:35.358Z,10.57
2023-11-19T01:53:03.966Z,10.13
2023-11-19T01:55:32.382Z,9.93
2023-11-19T01:58:03.748Z,11.27
2023-11-19T02:00:34.465Z,10.97
2023-11-19T02:03:04.767Z,10.40
2023-11-19T02:05:35.064Z,10.80
2023-11-19T02:08:04.308Z,10.53
2023-11-19T02:10:33.232Z,10.23
2023-11-19T02:13:06.594Z,10.03
2023-11-19T02:15:35.741Z,11.17
2023-11-19T02:18:21.309Z,10.63
2023-11-19T02:20:51.837Z,9.90
2023-11-19T02:23:21.714Z,10.50
2023-11-19T02:26:04.026Z,10.37
2023-11-19T02:28:34.209Z,10.70
2023-11-19T02:31:02.692Z,11.30
2023-11-19T02:33:31.458Z,10.83
2023-11-19T02:35:59.738Z,10.17
2023-11-19T02:38:28.357Z,9.53
2023-11-19T02:40:56.543Z,10.67
2023-11-19T02:43:25.189Z,11.10
2023-11-19T02:45:56.868Z,9.83
2023-11-19T02:48:25.916Z,10.57
2023-11-19T02:50:54.322Z,10.47
2023-11-19T02:53:23.606Z,10.13
2023-11-19T02:55:52.590Z,10.43
2023-11-19T02:58:25.897Z,9.77
2023-11-19T03:00:58.785Z,9.80
2023-11-19T03:03:32.176Z,10.53
2023-11-19T03:06:01.461Z,10.20
2023-11-19T03:08:31.979Z,9.63
2023-11-19T03:11:00.273Z,11.23
2023-11-19T03:13:29.050Z,10.80
2023-11-19T03:15:58.705Z,11.57
2023-11-19T03:18:28.130Z,10.83
2023-11-19T03:20:56.445Z,11.43
2023-11-19T03:23:24.980Z,10.50
2023-11-19T03:25:53.256Z,11.73
2023-11-19T03:28:22.080Z,12.33
2023-11-19T03:30:50.284Z,10.10
2023-11-19T03:33:20.139Z,10.77
2023-11-19T03:35:48.650Z,12.27
2023-11-19T03:38:17.103Z,9.40
2023-11-19T03:40:45.502Z,11.10
2023-11-19T03:43:14.407Z,11.27
2023-11-19T03:45:43.095Z,10.57
2023-11-19T03:48:11.628Z,9.57
2023-11-19T03:50:41.300Z,11.23
2023-11-19T03:53:09.894Z,10.13
2023-11-19T03:55:38.167Z,9.67
2023-11-19T03:58:06.894Z,10.27
2023-11-19T04:00:35.708Z,9.97
2023-11-19T04:03:04.747Z,10.30
2023-11-19T04:05:33.019Z,9.00
2023-11-19T04:08:02.843Z,9.60
2023-11-19T04:10:31.078Z,10.77
2023-11-19T04:12:59.558Z,9.73
2023-11-19T04:15:27.805Z,9.57
2023-11-19T04:17:56.342Z,9.43
2023-11-19T04:20:24.760Z,8.93
2023-11-19T04:22:54.916Z,9.73
2023-11-19T04:25:27.368Z,9.27
2023-11-19T04:27:55.985Z,9.03
2023-11-19T04:30:24.247Z,10.60
2023-11-19T04:32:52.974Z,10.63
2023-11-19T04:35:21.467Z,9.67
2023-11-19T04:37:50.236Z,9.00
2023-11-19T04:40:19.566Z,9.83
2023-11-19T04:42:49.645Z,8.23
2023-11-19T04:45:17.987Z,10.47
2023-11-19T04:47:46.662Z,9.20
2023-11-19T04:50:15.027Z,8.93
2023-11-19T04:52:46.261Z,9.50
2023-11-19T04:55:15.863Z,9.20
2023-11-19T04:57:45.186Z,8.23
2023-11-19T05:00:17.683Z,8.80
2023-11-19T05:02:46.829Z,10.20
2023-11-19T05:05:15.518Z,10.43
2023-11-19T05:07:44.082Z,8.27
2023-11-19T05:10:12.413Z,9.50
2023-11-19T05:12:42.623Z,10.43
2023-11-19T05:15:13.122Z,10.53
2023-11-19T05:17:43.213Z,10.30
2023-11-19T05:20:14.896Z,9.63
2023-11-19T05:22:44.071Z,9.33
2023-11-19T05:25:12.705Z,9.90
2023-11-19T05:27:41.548Z,10.20
2023-11-19T05:30:11.795Z,10.67
2023-11-19T05:32:42.193Z,10.37
2023-11-19T05:35:10.953Z,9.70
2023-11-19T05:37:39.872Z,10.17
2023-11-19T05:40:16.083Z,9.23
2023-11-19T05:42:45.794Z,8.97
2023-11-19T05:45:15.662Z,10.20
2023-11-19T05:47:45.759Z,9.40
2023-11-19T05:50:14.046Z,7.97
2023-11-19T05:52:42.556Z,8.57
2023-11-19T05:55:11.949Z,9.37
2023-11-19T06:00:16.905Z,8.63
2023-11-19T06:02:46.950Z,7.77
2023-11-19T06:05:15.384Z,8.93
2023-11-19T06:07:43.881Z,8.97
2023-11-19T06:10:13.959Z,7.50
2023-11-19T06:12:42.767Z,8.70
2023-11-19T06:15:12.751Z,8.63
2023-11-19T06:17:41.813Z,8.90
2023-11-19T06:20:13.389Z,8.47
2023-11-19T06:22:43.482Z,7.87
2023-11-19T06:25:13.619Z,8.20
2023-11-19T06:27:42.347Z,7.60
2023-11-19T06:30:11.333Z,7.17
2023-11-19T06:32:40.112Z,8.37
2023-11-19T06:35:09.011Z,6.87
2023-11-19T06:37:41.508Z,7.93
2023-11-19T06:40:11.415Z,7.00
2023-11-19T06:42:40.778Z,6.80
2023-11-19T06:45:09.768Z,8.23
2023-11-19T06:47:38.295Z,7.53
2023-11-19T06:50:08.346Z,8.33
2023-11-19T06:52:39.430Z,8.33
2023-11-19T06:55:09.052Z,7.23
2023-11-19T06:57:38.091Z,7.27
2023-11-19T07:00:08.130Z,7.73
2023-11-19T07:02:36.841Z,7.40
2023-11-19T07:05:06.483Z,7.90
2023-11-19T07:07:35.070Z,7.67
2023-11-19T07:10:05.930Z,7.90
2023-11-19T07:12:36.501Z,6.97
2023-11-19T07:15:05.196Z,7.60
2023-11-19T07:17:34.010Z,6.17
2023-11-19T07:20:02.324Z,6.83
2023-11-19T07:22:31.522Z,6.63
2023-11-19T07:25:00.310Z,7.20
2023-11-19T07:27:30.337Z,5.73
2023-11-19T07:29:58.918Z,6.80
2023-11-19T07:32:27.579Z,8.27
2023-11-19T07:34:57.466Z,6.37
2023-11-19T07:37:26.001Z,7.30
2023-11-19T07:39:54.531Z,6.03
2023-11-19T07:42:24.021Z,6.53
2023-11-19T07:44:55.679Z,6.87
2023-11-19T07:47:24.965Z,6.70
2023-11-19T07:49:53.442Z,6.57
2023-11-19T07:52:22.681Z,6.63
2023-11-19T07:54:51.029Z,6.37
2023-11-19T07:57:19.609Z,6.67
2023-11-19T07:59:47.924Z,6.53
2023-11-19T08:02:17.972Z,5.87
2023-11-19T08:04:47.343Z,6.23
2023-11-19T08:07:16.091Z,7.83
2023-11-19T08:09:44.604Z,6.17
2023-11-19T08:12:15.164Z,6.70
2023-11-19T08:14:43.663Z,7.47
2023-11-19T08:17:12.321Z,8.47
2023-11-19T08:19:41.954Z,8.37
2023-11-19T08:22:10.840Z,8.53
2023-11-19T08:24:39.036Z,7.13
2023-11-19T08:27:07.814Z,7.57
2023-11-19T08:29:36.432Z,7.20
2023-11-19T08:32:05.612Z,7.60
2023-11-19T08:34:34.037Z,7.07
2023-11-19T08:37:04.105Z,7.20
2023-11-19T08:39:32.680Z,6.67
2023-11-19T08:42:01.203Z,7.23
2023-11-19T08:44:29.872Z,7.00
2023-11-19T08:46:58.459Z,7.80
2023-11-19T08:49:27.098Z,6.77
2023-11-19T08:51:55.712Z,7.87
2023-11-19T08:54:25.290Z,6.70
2023-11-19T08:56:54.654Z,6.87
2023-11-19T08:59:23.018Z,7.27
2023-11-19T09:01:51.774Z,6.83
2023-11-19T09:04:23.666Z,6.37
2023-11-19T09:06:52.462Z,7.17
2023-11-19T09:09:20.663Z,8.60
2023-11-19T09:11:50.661Z,7.07
2023-11-19T09:14:19.416Z,7.13
2023-11-19T09:16:48.023Z,6.50
2023-11-19T09:19:16.385Z,6.47
2023-11-19T09:21:45.140Z,7.43
2023-11-19T09:24:16.774Z,7.67
2023-11-19T09:26:45.691Z,7.23
2023-11-19T09:29:15.951Z,7.23
2023-11-19T09:31:44.705Z,8.03
2023-11-19T09:34:13.259Z,7.30
2023-11-19T09:36:44.985Z,8.13
2023-11-19T09:39:14.070Z,7.70
2023-11-19T09:41:43.171Z,8.10
2023-11-19T09:44:13.070Z,7.97
2023-11-19T09:46:43.640Z,8.23
2023-11-19T09:49:12.862Z,8.47
2023-11-19T09:51:41.496Z,8.73
2023-11-19T09:54:10.597Z,7.73
2023-11-19T09:56:41.133Z,9.83
2023-11-19T09:59:11.192Z,7.47
2023-11-19T10:01:40.575Z,8.93
2023-11-19T10:04:11.973Z,9.20
2023-11-19T10:06:40.744Z,8.90
2023-11-19T10:09:09.053Z,8.63
2023-11-19T10:11:37.613Z,8.40
2023-11-19T10:14:05.896Z,8.80
2023-11-19T10:16:36.922Z,8.97
2023-11-19T10:19:05.564Z,8.73
2023-11-19T10:21:36.989Z,10.07
2023-11-19T10:24:07.634Z,8.60
2023-11-19T10:26:39.174Z,8.60
2023-11-19T10:29:07.513Z,10.10
2023-11-19T10:31:36.157Z,9.97
2023-11-19T10:34:05.187Z,8.13
2023-11-19T10:36:43.396Z,8.77
2023-11-19T10:39:11.771Z,8.90
2023-11-19T10:41:40.385Z,9.40
2023-11-19T10:44:10.151Z,9.37
2023-11-19T10:46:41.269Z,9.17
2023-11-19T10:49:10.112Z,8.57
2023-11-19T10:51:38.850Z,9.73
2023-11-19T10:54:08.767Z,9.87
2023-11-19T10:56:37.531Z,9.33
2023-11-19T10:59:22.862Z,7.97
2023-11-19T11:01:56.048Z,8.53
2023-11-19T11:04:49.845Z,8.63
2023-11-19T11:07:29.917Z,9.07
2023-11-19T11:10:10.647Z,9.00
2023-11-19T11:12:40.894Z,9.00
2023-11-19T11:15:11.037Z,9.20
2023-11-19T11:17:41.724Z,8.70
2023-11-19T11:20:11.630Z,9.93
2023-11-19T11:22:56.906Z,8.40
2023-11-19T11:25:38.397Z,9.03
2023-11-19T11:28:20.616Z,8.93
2023-11-19T11:31:02.681Z,8.77
2023-11-19T11:33:42.967Z,8.20
2023-11-19T11:36:20.396Z,9.87
2023-11-19T11:38:51.913Z,9.37
2023-11-19T11:41:26.341Z,8.57
2023-11-19T11:43:58.031Z,8.93
2023-11-19T11:46:57.921Z,10.07
2023-11-19T11:49:32.328Z,11.07
2023-11-19T11:52:02.058Z,9.00
2023-11-19T11:54:32.283Z,9.90
2023-11-19T11:57:13.996Z,8.80
2023-11-19T11:59:51.035Z,8.67
2023-11-19T12:02:22.263Z,10.40
2023-11-19T12:04:52.180Z,10.87
2023-11-19T12:07:22.757Z,10.47
2023-11-19T12:09:55.652Z,9.87
2023-11-19T12:12:29.113Z,10.97
2023-11-19T12:15:10.850Z,12.00
2023-11-19T12:17:51.279Z,11.03
2023-11-19T12:22:54.163Z,10.67
2023-11-19T12:25:23.610Z,12.10
2023-11-19T12:27:54.533Z,12.10
2023-11-19T12:30:25.198Z,11.70
2023-11-19T12:32:55.355Z,10.53
2023-11-19T12:35:25.383Z,10.37
2023-11-19T12:37:54.866Z,13.33
2023-11-19T12:40:24.939Z,11.50
2023-11-19T12:42:56.036Z,11.13
2023-11-19T12:45:26.034Z,10.97
2023-11-19T12:48:07.249Z,11.77
2023-11-19T12:50:54.267Z,11.00
2023-11-19T12:53:22.868Z,11.73
2023-11-19T12:55:52.717Z,12.27
2023-11-19T12:58:37.146Z,13.10
2023-11-19T13:01:07.202Z,12.77
2023-11-19T13:03:37.073Z,12.30
2023-11-19T13:06:09.159Z,12.20
2023-11-19T13:08:41.544Z,12.43
2023-11-19T13:11:10.882Z,12.33
2023-11-19T13:14:01.498Z,11.93
2023-11-19T13:16:30.679Z,12.10
2023-11-19T13:19:00.392Z,10.10
2023-11-19T13:21:29.364Z,11.63
2023-11-19T13:23:57.848Z,10.70
2023-11-19T13:26:26.507Z,10.10
2023-11-19T13:28:55.001Z,12.13
2023-11-19T13:31:25.075Z,9.20
2023-11-19T13:33:53.553Z,10.27
2023-11-19T13:36:22.176Z,9.77
2023-11-19T13:38:50.521Z,9.57
2023-11-19T13:41:19.382Z,10.20
2023-11-19T13:43:47.777Z,9.83
2023-11-19T13:46:16.311Z,8.00
2023-11-19T13:48:46.159Z,10.37
2023-11-19T13:51:14.788Z,9.27
2023-11-19T13:56:15.714Z,10.37
2023-11-19T13:58:43.992Z,9.60
2023-11-19T14:01:14.884Z,9.97
2023-11-19T14:03:44.081Z,10.43
2023-11-19T14:06:14.376Z,10.70
2023-11-19T14:08:42.598Z,9.97
2023-11-19T14:11:11.234Z,8.90
2023-11-19T14:13:39.536Z,10.57
2023-11-19T14:16:10.388Z,10.37
2023-11-19T14:18:39.531Z,9.80
2023-11-19T14:21:08.484Z,10.90
2023-11-19T14:23:38.101Z,10.67
2023-11-19T14:26:07.124Z,9.63
2023-11-19T14:28:35.426Z,10.43
2023-11-19T14:31:04.050Z,9.97
2023-11-19T14:33:33.436Z,8.70
2023-11-19T14:36:01.986Z,9.43
2023-11-19T14:38:30.423Z,10.33
2023-11-19T14:41:00.594Z,10.07
2023-11-19T14:43:28.873Z,8.40
2023-11-19T14:45:58.079Z,8.90
2023-11-19T14:48:26.485Z,8.47
2023-11-19T14:50:55.068Z,9.67
2023-11-19T14:53:23.803Z,8.40
2023-11-19T14:55:52.283Z,8.03
2023-11-19T14:58:21.927Z,8.33
2023-11-19T15:00:50.480Z,8.30
2023-11-19T15:03:20.526Z,7.83
2023-11-19T15:05:49.332Z,7.43
2023-11-19T15:08:17.911Z,8.50
2023-11-19T15:10:47.939Z,7.67
2023-11-19T15:13:16.656Z,7.50
2023-11-19T15:15:46.626Z,7.83
2023-11-19T15:18:18.004Z,9.43
2023-11-19T15:20:48.436Z,8.57
2023-11-19T15:23:17.077Z,8.80
2023-11-19T15:25:45.662Z,7.63
2023-11-19T15:28:13.898Z,8.03
2023-11-19T15:30:42.602Z,8.27
2023-11-19T15:33:12.325Z,8.30
2023-11-19T15:35:41.830Z,7.47
2023-11-19T15:38:10.785Z,6.57
2023-11-19T15:40:39.680Z,8.23
2023-11-19T15:43:08.308Z,8.30
2023-11-19T15:45:38.950Z,7.07
2023-11-19T15:48:08.037Z,8.23
2023-11-19T15:50:37.959Z,7.63
2023-11-19T15:53:06.284Z,7.17
2023-11-19T15:55:35.032Z,6.80
2023-11-19T15:58:03.366Z,8.77
2023-11-19T16:00:32.943Z,8.20
2023-11-19T16:03:01.439Z,7.27
2023-11-19T16:05:30.353Z,7.53
2023-11-19T16:08:00.148Z,8.27
2023-11-19T16:10:30.621Z,8.57
2023-11-19T16:12:58.893Z,7.27
2023-11-19T16:17:59.136Z,8.33
2023-11-19T16:20:28.199Z,7.97
2023-11-19T16:22:56.576Z,7.97
2023-11-19T16:25:26.438Z,7.73
2023-11-19T16:27:54.743Z,8.17
2023-11-19T16:30:24.031Z,8.73
2023-11-19T16:32:58.234Z,6.97
2023-11-19T16:35:27.818Z,7.80
2023-11-19T16:37:56.800Z,9.87
2023-11-19T16:40:26.651Z,7.63
2023-11-19T16:42:55.969Z,9.03
2023-11-19T16:45:24.487Z,7.67
2023-11-19T16:47:54.629Z,8.13
2023-11-19T16:50:23.921Z,8.03
2023-11-19T16:52:52.162Z,7.17
2023-11-19T16:55:21.026Z,8.20
2023-11-19T16:57:50.655Z,8.97
2023-11-19T17:00:19.791Z,8.93
2023-11-19T17:05:20.315Z,9.60
2023-11-19T17:07:49.895Z,10.97
2023-11-19T17:10:19.546Z,10.20
2023-11-19T17:12:47.912Z,11.20
2023-11-19T17:15:18.576Z,10.63
2023-11-19T17:17:46.979Z,9.53
2023-11-19T17:20:16.583Z,11.43
2023-11-19T17:22:44.886Z,12.00
2023-11-19T17:25:14.968Z,12.30
2023-11-19T17:27:44.589Z,12.17
2023-11-19T17:30:14.233Z,10.53
2023-11-19T17:32:43.953Z,9.97
2023-11-19T17:35:12.762Z,9.73
2023-11-19T17:37:42.426Z,10.10
2023-11-19T17:40:14.762Z,12.23
2023-11-19T17:42:43.060Z,11.30
2023-11-19T17:45:11.977Z,11.50
2023-11-19T17:47:40.384Z,11.03
2023-11-19T17:52:43.084Z,11.73
2023-11-19T17:55:14.236Z,11.33
2023-11-19T17:57:42.885Z,10.67
2023-11-19T18:00:15.506Z,10.57
2023-11-19T18:02:46.599Z,10.50
2023-11-19T18:05:17.857Z,10.57
2023-11-19T18:07:46.329Z,12.43
2023-11-19T18:10:15.411Z,12.70
2023-11-19T18:12:43.772Z,11.30
2023-11-19T18:15:14.560Z,10.83
2023-11-19T18:17:44.521Z,12.03
2023-11-19T18:20:15.751Z,11.80
2023-11-19T18:22:48.550Z,10.87
2023-11-19T18:25:19.299Z,11.80
2023-11-19T18:27:48.089Z,11.23
2023-11-19T18:30:17.302Z,10.70
2023-11-19T18:32:46.588Z,9.60
2023-11-19T18:35:18.077Z,10.63
2023-11-19T18:37:48.696Z,8.93
2023-11-19T18:40:20.475Z,11.30
2023-11-19T18:42:51.689Z,10.90
2023-11-19T18:45:23.163Z,10.97
2023-11-19T18:47:52.472Z,11.80
2023-11-19T18:50:22.020Z,11.93
2023-11-19T18:52:52.010Z,11.43
2023-11-19T18:55:20.594Z,10.40
2023-11-19T18:57:49.823Z,10.97
2023-11-19T19:00:19.538Z,11.97
2023-11-19T19:05:22.447Z,11.23
2023-11-19T19:07:57.628Z,9.70
2023-11-19T19:10:26.336Z,10.07
2023-11-19T19:12:55.176Z,12.00
2023-11-19T19:15:26.830Z,10.63
2023-11-19T19:17:55.175Z,12.03
2023-11-19T19:20:24.534Z,11.73
2023-11-19T19:22:54.276Z,10.77
2023-11-19T19:25:25.353Z,10.87
2023-11-19T19:28:20.512Z,11.23
2023-11-19T19:30:43.610Z,12.30
2023-11-19T19:33:12.772Z,10.50
2023-11-19T19:35:41.957Z,10.50
2023-11-19T19:38:11.839Z,10.60
2023-11-19T19:40:40.832Z,11.33
2023-11-19T19:43:10.642Z,11.30
2023-11-19T19:45:39.532Z,9.90
2023-11-19T19:48:08.258Z,13.00
2023-11-19T19:50:37.159Z,11.33
2023-11-19T19:53:05.599Z,10.70
2023-11-19T19:55:35.687Z,11.17
2023-11-19T19:58:05.057Z,12.07
2023-11-19T20:00:33.749Z,11.33
2023-11-19T20:03:02.106Z,9.97
2023-11-19T20:05:31.144Z,9.90
2023-11-19T20:08:00.417Z,9.60
2023-11-19T20:10:30.636Z,9.40
2023-11-19T20:13:02.207Z,9.03
2023-11-19T20:15:31.978Z,9.03
2023-11-19T20:18:00.376Z,8.00
2023-11-19T20:20:29.265Z,6.87
2023-11-19T20:22:57.628Z,8.97
2023-11-19T20:25:26.283Z,8.43
2023-11-19T20:27:54.563Z,8.03
2023-11-19T20:30:24.606Z,7.23
2023-11-19T20:32:52.814Z,7.10
2023-11-19T20:35:21.411Z,7.17
2023-11-19T20:37:49.649Z,7.23
2023-11-19T20:40:18.268Z,8.07
2023-11-19T20:42:46.559Z,6.30
2023-11-19T20:45:16.705Z,7.73
2023-11-19T20:47:50.624Z,5.87
2023-11-19T20:50:23.219Z,6.80
2023-11-19T20:52:53.450Z,7.60
2023-11-19T20:55:22.109Z,9.60
2023-11-19T20:57:50.922Z,14.13
2023-11-19T21:00:22.585Z,17.10
2023-11-19T21:02:55.029Z,16.50
2023-11-19T21:05:23.646Z,16.33
2023-11-19T21:07:51.921Z,15.40
2023-11-19T21:10:20.431Z,12.80
2023-11-19T21:12:51.144Z,11.37
2023-11-19T21:15:21.127Z,11.90
2023-11-19T21:17:49.524Z,11.47
2023-11-19T21:20:19.695Z,11.30
2023-11-19T21:22:47.926Z,9.50
2023-11-19T21:25:16.620Z,9.20
2023-11-19T21:27:44.964Z,9.33
2023-11-19T21:30:14.432Z,9.80
2023-11-19T21:32:42.846Z,7.37
2023-11-19T21:35:11.410Z,7.40
2023-11-19T21:37:41.069Z,6.60
2023-11-19T21:40:11.213Z,6.77
2023-11-19T21:42:39.736Z,6.47
2023-11-19T21:45:10.887Z,6.13
2023-11-19T21:47:39.177Z,6.10
2023-11-19T21:50:13.495Z,5.92
2023-11-19T21:52:43.114Z,6.00
2023-11-19T21:55:12.606Z,5.73
2023-11-19T21:57:42.581Z,4.97
2023-11-19T22:00:15.647Z,6.23
2023-11-19T22:02:43.878Z,5.73
2023-11-19T22:05:12.875Z,5.40
2023-11-19T22:07:42.810Z,5.47
2023-11-19T22:10:11.499Z,5.03
2023-11-19T22:12:41.138Z,5.77
2023-11-19T22:15:10.335Z,5.50
2023-11-19T22:17:38.911Z,5.33
2023-11-19T22:20:24.777Z,5.50
2023-11-19T22:22:54.642Z,4.77
2023-11-19T22:25:26.128Z,5.37
2023-11-19T22:27:55.070Z,5.17
2023-11-19T22:30:23.812Z,4.77
2023-11-19T22:32:52.293Z,4.57
2023-11-19T22:35:21.246Z,5.07
2023-11-19T22:37:49.753Z,3.80
2023-11-19T22:40:19.856Z,4.40
2023-11-19T22:42:48.128Z,4.43
2023-11-19T22:45:18.060Z,4.97
2023-11-19T22:47:46.387Z,3.90
2023-11-19T22:50:15.015Z,4.93
2023-11-19T22:52:44.253Z,3.87
2023-11-19T22:55:12.894Z,4.37
2023-11-19T23:00:28.747Z,4.47
2023-11-19T23:02:57.455Z,3.43
2023-11-19T23:05:28.749Z,4.17
2023-11-19T23:07:57.080Z,4.53
2023-11-19T23:10:26.106Z,4.27
2023-11-19T23:12:58.221Z,4.90
2023-11-19T23:15:27.267Z,3.80
2023-11-19T23:17:55.789Z,4.07
2023-11-19T23:20:24.596Z,4.43
2023-11-19T23:22:52.922Z,4.00
2023-11-19T23:25:21.538Z,3.77
2023-11-19T23:27:49.828Z,4.20
2023-11-19T23:30:20.647Z,3.27
2023-11-19T23:32:49.099Z,3.90
2023-11-19T23:35:17.819Z,4.23
2023-11-19T23:37:46.162Z,4.37
2023-11-19T23:40:14.908Z,4.77
2023-11-19T23:42:45.122Z,3.93
2023-11-19T23:45:13.779Z,4.80
2023-11-19T23:47:43.848Z,4.60
2023-11-19T23:50:12.700Z,4.30
2023-11-19T23:52:41.028Z,3.63
2023-11-19T23:55:12.425Z,3.70
2023-11-19T23:57:41.481Z,5.57
